sensor_id;sensor_type;location;lat;lon;timestamp;pressure;altitude;pressure_sealevel;temperature;humidity
68594;BME280;55563;52.416;13.548;2023-05-17T00:01:15;101442.13;;;8.04;100.00
68594;BME280;55563;52.416;13.548;2023-05-17T00:03:16;101434.06;;;8.05;100.00
68594;BME280;55563;52.416;13.548;2023-05-17T00:05:16;101441.53;;;8.02;100.00
68594;BME280;55563;52.416;13.548;2023-05-17T00:07:17;101440.16;;;7.99;100.00
68594;BME280;55563;52.416;13.548;2023-05-17T00:09:17;101444.59;;;7.99;100.00
68594;BME280;55563;52.416;13.548;2023-05-17T00:11:18;101437.75;;;7.98;100.00
68594;BME280;55563;52.416;13.548;2023-05-17T00:13:19;101439.81;;;7.96;100.00
68594;BME280;55563;52.416;13.548;2023-05-17T00:15:19;101436.59;;;7.94;100.00
68594;BME280;55563;52.416;13.548;2023-05-17T00:17:20;101440.03;;;7.94;100.00
68594;BME280;55563;52.416;13.548;2023-05-17T00:19:21;101435.00;;;7.93;100.00
68594;BME280;55563;52.416;13.548;2023-05-17T00:21:21;101436.47;;;7.88;100.00
68594;BME280;55563;52.416;13.548;2023-05-17T00:23:22;101440.91;;;7.88;100.00
68594;BME280;55563;52.416;13.548;2023-05-17T00:25:22;101439.28;;;7.87;100.00
68594;BME280;55563;52.416;13.548;2023-05-17T00:27:23;101433.72;;;7.83;100.00
68594;BME280;55563;52.416;13.548;2023-05-17T00:29:24;101441.06;;;7.75;100.00
68594;BME280;55563;52.416;13.548;2023-05-17T00:31:24;101450.13;;;7.72;100.00
68594;BME280;55563;52.416;13.548;2023-05-17T00:33:25;101442.22;;;7.79;100.00
68594;BME280;55563;52.416;13.548;2023-05-17T00:35:26;101447.59;;;7.84;100.00
68594;BME280;55563;52.416;13.548;2023-05-17T00:37:26;101443.22;;;7.78;100.00
68594;BME280;55563;52.416;13.548;2023-05-17T00:39:27;101440.41;;;7.79;100.00
68594;BME280;55563;52.416;13.548;2023-05-17T00:41:28;101435.53;;;7.83;100.00
68594;BME280;55563;52.416;13.548;2023-05-17T00:43:28;101436.78;;;7.80;100.00
68594;BME280;55563;52.416;13.548;2023-05-17T00:45:29;101436.28;;;7.72;100.00
68594;BME280;55563;52.416;13.548;2023-05-17T00:47:30;101439.69;;;7.72;100.00
68594;BME280;55563;52.416;13.548;2023-05-17T00:49:30;101438.75;;;7.67;100.00
68594;BME280;55563;52.416;13.548;2023-05-17T00:51:31;101443.75;;;7.68;100.00
68594;BME280;55563;52.416;13.548;2023-05-17T00:53:32;101446.16;;;7.70;100.00
68594;BME280;55563;52.416;13.548;2023-05-17T00:55:36;101442.59;;;7.64;100.00
68594;BME280;55563;52.416;13.548;2023-05-17T00:57:37;101445.88;;;7.60;100.00
68594;BME280;55563;52.416;13.548;2023-05-17T00:59:38;101441.13;;;7.68;100.00
68594;BME280;55563;52.416;13.548;2023-05-17T01:01:41;101436.16;;;7.67;100.00
68594;BME280;55563;52.416;13.548;2023-05-17T01:03:42;101440.84;;;7.58;100.00
68594;BME280;55563;52.416;13.548;2023-05-17T01:05:43;101443.84;;;7.62;100.00
68594;BME280;55563;52.416;13.548;2023-05-17T01:07:44;101445.22;;;7.64;100.00
68594;BME280;55563;52.416;13.548;2023-05-17T01:09:45;101437.56;;;7.63;100.00
68594;BME280;55563;52.416;13.548;2023-05-17T01:14:26;101450.97;;;7.55;100.00
68594;BME280;55563;52.416;13.548;2023-05-17T01:16:39;101448.53;;;7.53;100.00
68594;BME280;55563;52.416;13.548;2023-05-17T01:18:45;101444.56;;;7.51;100.00
68594;BME280;55563;52.416;13.548;2023-05-17T01:20:49;101444.56;;;7.51;100.00
68594;BME280;55563;52.416;13.548;2023-05-17T01:23:13;101455.03;;;7.51;100.00
68594;BME280;55563;52.416;13.548;2023-05-17T01:25:35;101450.38;;;7.53;100.00
68594;BME280;55563;52.416;13.548;2023-05-17T01:27:41;101450.97;;;7.55;100.00
68594;BME280;55563;52.416;13.548;2023-05-17T01:29:43;101456.97;;;7.37;100.00
68594;BME280;55563;52.416;13.548;2023-05-17T01:31:44;101457.94;;;7.42;100.00
68594;BME280;55563;52.416;13.548;2023-05-17T01:33:45;101452.06;;;7.47;100.00
68594;BME280;55563;52.416;13.548;2023-05-17T01:35:46;101454.28;;;7.43;100.00
68594;BME280;55563;52.416;13.548;2023-05-17T01:37:47;101457.69;;;7.44;100.00
68594;BME280;55563;52.416;13.548;2023-05-17T01:39:48;101460.31;;;7.44;100.00
68594;BME280;55563;52.416;13.548;2023-05-17T01:42:12;101468.91;;;7.33;100.00
68594;BME280;55563;52.416;13.548;2023-05-17T01:44:35;101464.31;;;7.28;100.00
68594;BME280;55563;52.416;13.548;2023-05-17T01:46:40;101467.63;;;7.17;100.00
68594;BME280;55563;52.416;13.548;2023-05-17T01:48:47;101480.09;;;7.15;100.00
68594;BME280;55563;52.416;13.548;2023-05-17T01:50:51;101472.25;;;7.15;100.00
68594;BME280;55563;52.416;13.548;2023-05-17T01:53:01;101472.34;;;7.09;100.00
68594;BME280;55563;52.416;13.548;2023-05-17T01:55:33;101476.69;;;7.15;100.00
68594;BME280;55563;52.416;13.548;2023-05-17T01:57:35;101469.94;;;7.07;100.00
68594;BME280;55563;52.416;13.548;2023-05-17T01:59:37;101475.03;;;6.95;100.00
68594;BME280;55563;52.416;13.548;2023-05-17T02:01:38;101469.06;;;6.88;100.00
68594;BME280;55563;52.416;13.548;2023-05-17T02:03:40;101468.59;;;6.98;100.00
68594;BME280;55563;52.416;13.548;2023-05-17T02:05:41;101471.06;;;6.93;100.00
68594;BME280;55563;52.416;13.548;2023-05-17T02:07:41;101476.88;;;6.95;100.00
68594;BME280;55563;52.416;13.548;2023-05-17T02:09:42;101470.63;;;6.96;100.00
68594;BME280;55563;52.416;13.548;2023-05-17T02:11:44;101467.84;;;6.91;100.00
68594;BME280;55563;52.416;13.548;2023-05-17T02:13:44;101467.63;;;6.92;100.00
68594;BME280;55563;52.416;13.548;2023-05-17T02:15:45;101469.28;;;6.87;100.00
68594;BME280;55563;52.416;13.548;2023-05-17T02:17:45;101471.16;;;6.80;100.00
68594;BME280;55563;52.416;13.548;2023-05-17T02:19:48;101471.78;;;6.75;100.00
68594;BME280;55563;52.416;13.548;2023-05-17T02:21:49;101474.56;;;6.80;100.00
68594;BME280;55563;52.416;13.548;2023-05-17T02:23:50;101470.72;;;6.83;100.00
68594;BME280;55563;52.416;13.548;2023-05-17T02:25:52;101468.91;;;6.83;100.00
68594;BME280;55563;52.416;13.548;2023-05-17T02:27:53;101466.78;;;6.74;100.00
68594;BME280;55563;52.416;13.548;2023-05-17T02:29:54;101468.53;;;6.80;100.00
68594;BME280;55563;52.416;13.548;2023-05-17T02:31:54;101465.00;;;6.68;100.00
68594;BME280;55563;52.416;13.548;2023-05-17T02:33:55;101459.75;;;6.74;100.00
68594;BME280;55563;52.416;13.548;2023-05-17T02:35:56;101465.78;;;6.75;100.00
68594;BME280;55563;52.416;13.548;2023-05-17T02:37:57;101464.59;;;6.71;100.00
68594;BME280;55563;52.416;13.548;2023-05-17T02:39:58;101465.59;;;6.70;100.00
68594;BME280;55563;52.416;13.548;2023-05-17T02:41:58;101467.22;;;6.71;100.00
68594;BME280;55563;52.416;13.548;2023-05-17T02:43:59;101465.81;;;6.68;100.00
68594;BME280;55563;52.416;13.548;2023-05-17T02:46:00;101464.59;;;6.71;100.00
68594;BME280;55563;52.416;13.548;2023-05-17T02:48:01;101471.63;;;6.70;100.00
68594;BME280;55563;52.416;13.548;2023-05-17T02:50:02;101466.81;;;6.67;100.00
68594;BME280;55563;52.416;13.548;2023-05-17T02:52:04;101462.94;;;6.76;100.00
68594;BME280;55563;52.416;13.548;2023-05-17T02:54:05;101469.34;;;6.80;100.00
68594;BME280;55563;52.416;13.548;2023-05-17T02:56:06;101477.34;;;6.85;100.00
68594;BME280;55563;52.416;13.548;2023-05-17T02:58:07;101471.53;;;6.83;100.00
68594;BME280;55563;52.416;13.548;2023-05-17T03:00:09;101474.94;;;6.84;100.00
68594;BME280;55563;52.416;13.548;2023-05-17T03:02:10;101474.34;;;6.82;100.00
68594;BME280;55563;52.416;13.548;2023-05-17T03:04:11;101475.47;;;6.92;100.00
68594;BME280;55563;52.416;13.548;2023-05-17T03:06:13;101480.91;;;6.91;100.00
68594;BME280;55563;52.416;13.548;2023-05-17T03:08:14;101485.75;;;6.87;100.00
68594;BME280;55563;52.416;13.548;2023-05-17T03:10:15;101480.53;;;6.87;100.00
68594;BME280;55563;52.416;13.548;2023-05-17T03:12:18;101484.13;;;6.93;100.00
68594;BME280;55563;52.416;13.548;2023-05-17T03:14:20;101488.25;;;7.00;100.00
68594;BME280;55563;52.416;13.548;2023-05-17T03:16:20;101486.84;;;7.05;100.00
68594;BME280;55563;52.416;13.548;2023-05-17T03:18:23;101492.28;;;7.03;100.00
68594;BME280;55563;52.416;13.548;2023-05-17T03:20:23;101494.41;;;7.13;100.00
68594;BME280;55563;52.416;13.548;2023-05-17T03:22:24;101484.59;;;7.08;100.00
68594;BME280;55563;52.416;13.548;2023-05-17T03:24:26;101489.38;;;7.11;100.00
68594;BME280;55563;52.416;13.548;2023-05-17T03:26:27;101499.44;;;7.14;100.00
68594;BME280;55563;52.416;13.548;2023-05-17T03:28:28;101495.78;;;7.15;100.00
68594;BME280;55563;52.416;13.548;2023-05-17T03:30:29;101493.56;;;7.19;100.00
68594;BME280;55563;52.416;13.548;2023-05-17T03:32:30;101495.75;;;7.22;100.00
68594;BME280;55563;52.416;13.548;2023-05-17T03:34:31;101496.09;;;7.25;100.00
68594;BME280;55563;52.416;13.548;2023-05-17T03:36:33;101496.22;;;7.37;100.00
68594;BME280;55563;52.416;13.548;2023-05-17T03:38:34;101496.69;;;7.27;100.00
68594;BME280;55563;52.416;13.548;2023-05-17T03:40:35;101514.34;;;7.32;100.00
68594;BME280;55563;52.416;13.548;2023-05-17T03:42:36;101518.19;;;7.29;100.00
68594;BME280;55563;52.416;13.548;2023-05-17T03:44:39;101514.88;;;7.40;100.00
68594;BME280;55563;52.416;13.548;2023-05-17T03:46:41;101518.91;;;7.43;100.00
68594;BME280;55563;52.416;13.548;2023-05-17T03:48:42;101522.44;;;7.49;100.00
68594;BME280;55563;52.416;13.548;2023-05-17T03:50:44;101522.53;;;7.60;100.00
68594;BME280;55563;52.416;13.548;2023-05-17T03:52:45;101527.31;;;7.63;100.00
68594;BME280;55563;52.416;13.548;2023-05-17T03:54:47;101521.88;;;7.65;100.00
68594;BME280;55563;52.416;13.548;2023-05-17T03:56:47;101526.31;;;7.64;100.00
68594;BME280;55563;52.416;13.548;2023-05-17T03:58:50;101527.31;;;7.63;100.00
68594;BME280;55563;52.416;13.548;2023-05-17T04:00:51;101527.72;;;7.67;100.00
68594;BME280;55563;52.416;13.548;2023-05-17T04:02:52;101535.72;;;7.72;100.00
68594;BME280;55563;52.416;13.548;2023-05-17T04:04:53;101533.00;;;7.78;100.00
68594;BME280;55563;52.416;13.548;2023-05-17T04:06:56;101537.84;;;7.81;100.00
68594;BME280;55563;52.416;13.548;2023-05-17T04:08:57;101546.41;;;7.88;100.00
68594;BME280;55563;52.416;13.548;2023-05-17T04:10:59;101544.53;;;7.96;100.00
68594;BME280;55563;52.416;13.548;2023-05-17T04:13:09;101536.00;;;8.00;100.00
68594;BME280;55563;52.416;13.548;2023-05-17T04:15:11;101539.34;;;8.07;100.00
68594;BME280;55563;52.416;13.548;2023-05-17T04:17:14;101546.88;;;8.15;100.00
68594;BME280;55563;52.416;13.548;2023-05-17T04:19:14;101536.69;;;8.25;100.00
68594;BME280;55563;52.416;13.548;2023-05-17T04:21:15;101548.22;;;8.43;100.00
68594;BME280;55563;52.416;13.548;2023-05-17T04:23:16;101538.97;;;8.70;100.00
68594;BME280;55563;52.416;13.548;2023-05-17T04:25:16;101550.22;;;10.17;100.00
68594;BME280;55563;52.416;13.548;2023-05-17T04:27:17;101545.50;;;10.59;100.00
68594;BME280;55563;52.416;13.548;2023-05-17T04:29:18;101550.94;;;10.40;100.00
68594;BME280;55563;52.416;13.548;2023-05-17T04:31:20;101540.69;;;13.60;100.00
68594;BME280;55563;52.416;13.548;2023-05-17T04:33:22;101547.16;;;15.22;100.00
68594;BME280;55563;52.416;13.548;2023-05-17T04:35:23;101547.50;;;14.08;100.00
68594;BME280;55563;52.416;13.548;2023-05-17T04:37:27;101550.78;;;15.87;97.18
68594;BME280;55563;52.416;13.548;2023-05-17T04:39:32;101558.31;;;17.36;82.62
68594;BME280;55563;52.416;13.548;2023-05-17T04:41:33;101557.13;;;15.86;94.39
68594;BME280;55563;52.416;13.548;2023-05-17T04:43:36;101558.63;;;16.56;87.73
68594;BME280;55563;52.416;13.548;2023-05-17T04:45:40;101557.09;;;13.25;100.00
68594;BME280;55563;52.416;13.548;2023-05-17T04:47:41;101580.88;;;12.01;100.00
68594;BME280;55563;52.416;13.548;2023-05-17T04:49:41;101582.38;;;11.09;100.00
68594;BME280;55563;52.416;13.548;2023-05-17T04:51:42;101586.38;;;11.45;100.00
68594;BME280;55563;52.416;13.548;2023-05-17T04:53:44;101596.75;;;10.73;100.00
68594;BME280;55563;52.416;13.548;2023-05-17T04:55:49;101605.06;;;10.81;100.00
68594;BME280;55563;52.416;13.548;2023-05-17T04:57:51;101609.06;;;11.01;100.00
68594;BME280;55563;52.416;13.548;2023-05-17T04:59:51;101606.41;;;10.56;100.00
68594;BME280;55563;52.416;13.548;2023-05-17T05:01:52;101606.63;;;11.11;100.00
68594;BME280;55563;52.416;13.548;2023-05-17T05:03:53;101609.44;;;14.22;100.00
68594;BME280;55563;52.416;13.548;2023-05-17T05:05:54;101605.84;;;13.49;100.00
68594;BME280;55563;52.416;13.548;2023-05-17T05:07:54;101611.94;;;11.99;100.00
68594;BME280;55563;52.416;13.548;2023-05-17T05:09:56;101619.81;;;11.99;100.00
68594;BME280;55563;52.416;13.548;2023-05-17T05:11:57;101630.03;;;13.09;100.00
68594;BME280;55563;52.416;13.548;2023-05-17T05:13:58;101627.50;;;12.01;100.00
68594;BME280;55563;52.416;13.548;2023-05-17T05:15:59;101631.06;;;13.67;100.00
68594;BME280;55563;52.416;13.548;2023-05-17T05:18:00;101622.56;;;16.65;91.39
68594;BME280;55563;52.416;13.548;2023-05-17T05:20:03;101615.44;;;17.91;76.02
68594;BME280;55563;52.416;13.548;2023-05-17T05:22:04;101615.72;;;18.93;68.72
68594;BME280;55563;52.416;13.548;2023-05-17T05:24:07;101618.19;;;18.28;72.24
68594;BME280;55563;52.416;13.548;2023-05-17T05:26:07;101626.13;;;19.27;65.07
68594;BME280;55563;52.416;13.548;2023-05-17T05:28:08;101623.03;;;18.03;70.54
68594;BME280;55563;52.416;13.548;2023-05-17T05:30:12;101626.63;;;20.16;63.27
68594;BME280;55563;52.416;13.548;2023-05-17T05:32:21;101624.66;;;20.71;58.07
68594;BME280;55563;52.416;13.548;2023-05-17T05:34:22;101624.56;;;19.99;59.94
68594;BME280;55563;52.416;13.548;2023-05-17T05:36:23;101626.06;;;20.33;58.11
68594;BME280;55563;52.416;13.548;2023-05-17T05:38:23;101630.16;;;20.88;54.88
68594;BME280;55563;52.416;13.548;2023-05-17T05:40:24;101632.47;;;20.18;56.53
68594;BME280;55563;52.416;13.548;2023-05-17T05:42:25;101638.88;;;20.17;55.00
68594;BME280;55563;52.416;13.548;2023-05-17T05:44:28;101638.66;;;21.13;54.42
68594;BME280;55563;52.416;13.548;2023-05-17T05:46:29;101640.53;;;17.51;60.12
68594;BME280;55563;52.416;13.548;2023-05-17T05:48:31;101637.47;;;18.82;58.17
68594;BME280;55563;52.416;13.548;2023-05-17T05:50:33;101638.94;;;19.71;55.79
68594;BME280;55563;52.416;13.548;2023-05-17T05:52:40;101640.19;;;17.29;62.23
68594;BME280;55563;52.416;13.548;2023-05-17T05:54:41;101644.72;;;20.06;54.98
68594;BME280;55563;52.416;13.548;2023-05-17T05:56:42;101640.63;;;17.41;59.71
68594;BME280;55563;52.416;13.548;2023-05-17T05:58:46;101637.56;;;18.34;58.63
68594;BME280;55563;52.416;13.548;2023-05-17T06:00:47;101661.22;;;18.59;62.84
68594;BME280;55563;52.416;13.548;2023-05-17T06:02:47;101648.75;;;17.26;66.34
68594;BME280;55563;52.416;13.548;2023-05-17T06:04:48;101650.63;;;16.12;73.53
68594;BME280;55563;52.416;13.548;2023-05-17T06:06:49;101652.94;;;14.47;93.28
68594;BME280;55563;52.416;13.548;2023-05-17T06:08:50;101660.06;;;14.41;97.21
68594;BME280;55563;52.416;13.548;2023-05-17T06:10:51;101662.34;;;17.82;72.02
68594;BME280;55563;52.416;13.548;2023-05-17T06:12:51;101653.44;;;18.20;64.05
68594;BME280;55563;52.416;13.548;2023-05-17T06:14:52;101666.72;;;14.59;87.36
68594;BME280;55563;52.416;13.548;2023-05-17T06:16:53;101669.91;;;14.04;89.19
68594;BME280;55563;52.416;13.548;2023-05-17T06:18:53;101660.84;;;14.36;88.63
68594;BME280;55563;52.416;13.548;2023-05-17T06:20:54;101666.88;;;13.85;94.22
68594;BME280;55563;52.416;13.548;2023-05-17T06:22:54;101670.31;;;17.19;71.92
68594;BME280;55563;52.416;13.548;2023-05-17T06:24:55;101660.84;;;16.54;68.29
68594;BME280;55563;52.416;13.548;2023-05-17T06:26:56;101659.94;;;16.09;71.29
68594;BME280;55563;52.416;13.548;2023-05-17T06:28:56;101665.88;;;13.96;81.01
68594;BME280;55563;52.416;13.548;2023-05-17T06:30:57;101674.56;;;15.46;75.07
68594;BME280;55563;52.416;13.548;2023-05-17T06:32:57;101679.94;;;17.78;62.68
68594;BME280;55563;52.416;13.548;2023-05-17T06:34:58;101678.09;;;17.44;66.37
68594;BME280;55563;52.416;13.548;2023-05-17T06:36:59;101676.06;;;19.54;55.97
68594;BME280;55563;52.416;13.548;2023-05-17T06:38:59;101656.28;;;18.48;56.10
68594;BME280;55563;52.416;13.548;2023-05-17T06:41:00;101657.31;;;17.80;54.12
68594;BME280;55563;52.416;13.548;2023-05-17T06:43:01;101671.81;;;17.93;56.03
68594;BME280;55563;52.416;13.548;2023-05-17T06:45:01;101665.03;;;18.72;56.35
68594;BME280;55563;52.416;13.548;2023-05-17T06:47:02;101669.53;;;15.24;62.72
68594;BME280;55563;52.416;13.548;2023-05-17T06:49:03;101674.34;;;18.51;55.76
68594;BME280;55563;52.416;13.548;2023-05-17T06:51:04;101676.06;;;16.28;57.96
68594;BME280;55563;52.416;13.548;2023-05-17T06:53:04;101683.81;;;13.52;69.31
68594;BME280;55563;52.416;13.548;2023-05-17T06:55:05;101700.56;;;15.95;67.88
68594;BME280;55563;52.416;13.548;2023-05-17T06:57:06;101693.66;;;17.61;59.48
68594;BME280;55563;52.416;13.548;2023-05-17T06:59:09;101680.91;;;15.15;61.49
68594;BME280;55563;52.416;13.548;2023-05-17T07:01:10;101687.28;;;15.95;63.82
68594;BME280;55563;52.416;13.548;2023-05-17T07:03:10;101697.91;;;15.90;63.01
68594;BME280;55563;52.416;13.548;2023-05-17T07:05:11;101688.75;;;16.36;60.59
68594;BME280;55563;52.416;13.548;2023-05-17T07:07:12;101694.63;;;14.87;63.17
68594;BME280;55563;52.416;13.548;2023-05-17T07:09:13;101702.66;;;16.87;55.67
68594;BME280;55563;52.416;13.548;2023-05-17T07:11:13;101694.13;;;19.25;49.77
68594;BME280;55563;52.416;13.548;2023-05-17T07:13:14;101697.19;;;18.33;50.75
68594;BME280;55563;52.416;13.548;2023-05-17T07:15:15;101697.78;;;20.75;47.00
68594;BME280;55563;52.416;13.548;2023-05-17T07:17:15;101694.97;;;19.20;47.76
68594;BME280;55563;52.416;13.548;2023-05-17T07:19:16;101695.47;;;20.82;46.41
68594;BME280;55563;52.416;13.548;2023-05-17T07:21:17;101694.69;;;20.96;46.63
68594;BME280;55563;52.416;13.548;2023-05-17T07:23:18;101694.34;;;20.61;45.40
68594;BME280;55563;52.416;13.548;2023-05-17T07:25:18;101699.41;;;18.26;47.65
68594;BME280;55563;52.416;13.548;2023-05-17T07:27:20;101705.28;;;19.27;47.07
68594;BME280;55563;52.416;13.548;2023-05-17T07:29:21;101708.53;;;19.24;47.81
68594;BME280;55563;52.416;13.548;2023-05-17T07:31:21;101712.03;;;19.89;46.51
68594;BME280;55563;52.416;13.548;2023-05-17T07:33:22;101700.16;;;17.79;49.37
68594;BME280;55563;52.416;13.548;2023-05-17T07:35:23;101705.38;;;17.21;51.97
68594;BME280;55563;52.416;13.548;2023-05-17T07:37:23;101721.25;;;15.73;55.57
68594;BME280;55563;52.416;13.548;2023-05-17T07:39:24;101714.72;;;16.60;56.81
68594;BME280;55563;52.416;13.548;2023-05-17T07:41:24;101713.16;;;16.43;57.65
68594;BME280;55563;52.416;13.548;2023-05-17T07:43:26;101723.06;;;16.12;61.81
68594;BME280;55563;52.416;13.548;2023-05-17T07:45:27;101722.81;;;15.43;62.05
68594;BME280;55563;52.416;13.548;2023-05-17T07:47:28;101715.78;;;14.92;63.17
68594;BME280;55563;52.416;13.548;2023-05-17T07:49:29;101729.91;;;15.17;63.53
68594;BME280;55563;52.416;13.548;2023-05-17T07:51:30;101736.38;;;15.72;65.73
68594;BME280;55563;52.416;13.548;2023-05-17T07:53:31;101745.28;;;15.25;65.95
68594;BME280;55563;52.416;13.548;2023-05-17T07:55:31;101745.53;;;15.14;64.97
68594;BME280;55563;52.416;13.548;2023-05-17T07:57:32;101743.97;;;15.23;64.13
68594;BME280;55563;52.416;13.548;2023-05-17T07:59:32;101747.13;;;15.15;64.27
68594;BME280;55563;52.416;13.548;2023-05-17T08:01:33;101759.34;;;14.59;65.51
68594;BME280;55563;52.416;13.548;2023-05-17T08:03:34;101756.88;;;14.42;65.80
68594;BME280;55563;52.416;13.548;2023-05-17T08:05:35;101755.63;;;14.55;65.58
68594;BME280;55563;52.416;13.548;2023-05-17T08:07:36;101760.31;;;15.00;63.70
68594;BME280;55563;52.416;13.548;2023-05-17T08:09:36;101757.28;;;14.66;62.54
68594;BME280;55563;52.416;13.548;2023-05-17T08:11:37;101762.47;;;15.18;63.28
68594;BME280;55563;52.416;13.548;2023-05-17T08:13:45;101766.59;;;14.83;67.57
68594;BME280;55563;52.416;13.548;2023-05-17T08:15:45;101757.94;;;15.03;64.76
68594;BME280;55563;52.416;13.548;2023-05-17T08:17:46;101760.38;;;15.20;64.59
68594;BME280;55563;52.416;13.548;2023-05-17T08:19:46;101758.88;;;15.64;63.70
68594;BME280;55563;52.416;13.548;2023-05-17T08:21:47;101760.91;;;15.22;61.59
68594;BME280;55563;52.416;13.548;2023-05-17T08:23:48;101757.25;;;15.48;64.25
68594;BME280;55563;52.416;13.548;2023-05-17T08:25:49;101757.72;;;15.15;65.63
68594;BME280;55563;52.416;13.548;2023-05-17T12:06:40;101797.19;;;17.81;45.57
68594;BME280;55563;52.416;13.548;2023-05-17T12:08:43;101794.50;;;17.86;43.34
68594;BME280;55563;52.416;13.548;2023-05-17T12:10:49;101795.59;;;17.80;43.31
68594;BME280;55563;52.416;13.548;2023-05-17T12:12:49;101798.75;;;17.88;43.70
68594;BME280;55563;52.416;13.548;2023-05-17T12:14:50;101787.06;;;17.44;44.69
68594;BME280;55563;52.416;13.548;2023-05-17T12:16:53;101787.28;;;17.53;45.33
68594;BME280;55563;52.416;13.548;2023-05-17T12:18:55;101786.69;;;17.17;44.54
68594;BME280;55563;52.416;13.548;2023-05-17T12:20:58;101788.50;;;16.57;44.75
68594;BME280;55563;52.416;13.548;2023-05-17T12:22:59;101785.59;;;17.23;46.68
68594;BME280;55563;52.416;13.548;2023-05-17T12:25:00;101784.03;;;17.61;45.34
68594;BME280;55563;52.416;13.548;2023-05-17T12:27:00;101780.56;;;17.66;44.42
68594;BME280;55563;52.416;13.548;2023-05-17T12:29:01;101793.53;;;17.28;45.54
68594;BME280;55563;52.416;13.548;2023-05-17T12:31:03;101780.09;;;17.10;46.54
68594;BME280;55563;52.416;13.548;2023-05-17T12:33:05;101794.78;;;16.92;46.79
68594;BME280;55563;52.416;13.548;2023-05-17T12:35:06;101778.47;;;17.63;43.40
68594;BME280;55563;52.416;13.548;2023-05-17T12:37:08;101783.97;;;17.71;42.19
68594;BME280;55563;52.416;13.548;2023-05-17T12:39:11;101789.44;;;17.85;42.50
68594;BME280;55563;52.416;13.548;2023-05-17T12:41:14;101794.94;;;17.65;43.68
68594;BME280;55563;52.416;13.548;2023-05-17T12:43:15;101797.66;;;17.50;45.11
68594;BME280;55563;52.416;13.548;2023-05-17T12:45:15;101799.53;;;17.00;45.95
68594;BME280;55563;52.416;13.548;2023-05-17T12:47:16;101787.22;;;16.45;46.65
68594;BME280;55563;52.416;13.548;2023-05-17T12:49:17;101781.13;;;17.63;44.38
68594;BME280;55563;52.416;13.548;2023-05-17T12:51:21;101781.88;;;17.68;43.83
68594;BME280;55563;52.416;13.548;2023-05-17T12:53:22;101778.47;;;17.58;44.44
68594;BME280;55563;52.416;13.548;2023-05-17T12:55:24;101779.88;;;17.01;44.98
68594;BME280;55563;52.416;13.548;2023-05-17T12:57:25;101785.72;;;16.98;44.03
68594;BME280;55563;52.416;13.548;2023-05-17T12:59:25;101787.78;;;17.11;44.84
68594;BME280;55563;52.416;13.548;2023-05-17T13:01:33;101791.84;;;17.86;43.61
68594;BME280;55563;52.416;13.548;2023-05-17T13:03:34;101781.91;;;17.97;43.67
68594;BME280;55563;52.416;13.548;2023-05-17T13:05:34;101780.63;;;18.18;43.63
68594;BME280;55563;52.416;13.548;2023-05-17T13:07:35;101773.41;;;17.56;44.17
68594;BME280;55563;52.416;13.548;2023-05-17T13:09:44;101776.66;;;17.48;44.06
68594;BME280;55563;52.416;13.548;2023-05-17T13:12:07;101779.53;;;17.57;42.98
68594;BME280;55563;52.416;13.548;2023-05-17T13:14:09;101789.50;;;17.80;42.50
68594;BME280;55563;52.416;13.548;2023-05-17T13:16:11;101788.91;;;17.88;42.79
68594;BME280;55563;52.416;13.548;2023-05-17T13:18:13;101782.88;;;16.74;43.75
68594;BME280;55563;52.416;13.548;2023-05-17T13:20:17;101779.66;;;17.80;43.59
68594;BME280;55563;52.416;13.548;2023-05-17T13:22:18;101777.56;;;18.06;44.39
68594;BME280;55563;52.416;13.548;2023-05-17T13:24:19;101778.19;;;17.98;44.92
68594;BME280;55563;52.416;13.548;2023-05-17T13:26:19;101770.09;;;18.08;43.97
68594;BME280;55563;52.416;13.548;2023-05-17T13:28:20;101779.09;;;18.41;43.53
68594;BME280;55563;52.416;13.548;2023-05-17T13:30:21;101779.59;;;18.43;42.97
68594;BME280;55563;52.416;13.548;2023-05-17T13:32:22;101783.16;;;17.76;42.91
68594;BME280;55563;52.416;13.548;2023-05-17T13:34:22;101779.56;;;17.91;42.12
68594;BME280;55563;52.416;13.548;2023-05-17T13:36:23;101785.75;;;17.81;41.84
68594;BME280;55563;52.416;13.548;2023-05-17T13:38:24;101787.06;;;17.89;40.59
68594;BME280;55563;52.416;13.548;2023-05-17T13:40:24;101786.75;;;17.90;41.02
68594;BME280;55563;52.416;13.548;2023-05-17T13:42:25;101789.28;;;18.05;42.82
68594;BME280;55563;52.416;13.548;2023-05-17T13:44:26;101776.84;;;17.67;42.45
68594;BME280;55563;52.416;13.548;2023-05-17T13:46:27;101788.03;;;17.15;42.72
68594;BME280;55563;52.416;13.548;2023-05-17T13:48:28;101793.34;;;17.15;43.00
68594;BME280;55563;52.416;13.548;2023-05-17T13:50:29;101788.06;;;17.10;42.83
68594;BME280;55563;52.416;13.548;2023-05-17T13:52:29;101791.81;;;16.98;44.15
68594;BME280;55563;52.416;13.548;2023-05-17T13:54:31;101797.06;;;15.89;43.11
68594;BME280;55563;52.416;13.548;2023-05-17T13:56:32;101793.06;;;17.21;43.83
68594;BME280;55563;52.416;13.548;2023-05-17T13:58:32;101789.00;;;17.78;42.71
68594;BME280;55563;52.416;13.548;2023-05-17T14:00:33;101785.91;;;17.95;44.04
68594;BME280;55563;52.416;13.548;2023-05-17T14:02:35;101792.88;;;17.47;43.59
68594;BME280;55563;52.416;13.548;2023-05-17T14:04:36;101793.84;;;17.66;43.05
68594;BME280;55563;52.416;13.548;2023-05-17T14:06:37;101794.91;;;17.99;42.75
68594;BME280;55563;52.416;13.548;2023-05-17T14:08:43;101802.53;;;17.81;43.31
68594;BME280;55563;52.416;13.548;2023-05-17T14:10:47;101795.88;;;16.81;43.13